Sayansk, Russia
Current Conditions -  °F | °C
As of 3:00 AM on Wednesday 28 Jan 2015 (Local Time) from UIBB Reporting Station
Broken Clouds Broken Clouds  
Wind Chill: -15°   Ceiling: 20000
Heat Index:   Visibility: 3mi
Dew Point: -11°   Wind: 11mph
Humidity: 56%   Direction: 210°SSW
Pressure: 30.18"   Gusts: NA
Location:  53.99°N, 102.1°E
Report Text: UIBB 271900Z 21005MPS P5000 FEW026CB BKN200 M17/M24 Q1022 NOSIGRMK QFE723/0964 30420145
Loading
Personal Weather Stations






























Interactive Weather Map New forecast layout! Learn more

10-Day Weather Forecast

Advertisements
Track Severe Weather on mobile